Chilas Airport


Codes: OPCL/CHB
Name: Chilas Airport
City: Chilas
Country: Pakistan
Elevation: 4146 ft.
Wikipedia:

Photos at Chilas Airport


   Photos courtesy of SpottingLog. You can add your own sightings and photos by signing up for a free trial today.



No photos found.

Weather at Chilas Airport


Time (UTC)DescriptionTempratureWindCloud coverageVisibilityPressureHumidity
16-Jun-2024 00:00Few Clouds26°C2 mph, S15%10000m1010hPa41%
16-Jun-2024 03:00Few Clouds28°C2 mph, W11%10000m1010hPa37%
16-Jun-2024 06:00Clear Sky31°C2 mph, NW6%10000m1009hPa29%
16-Jun-2024 09:00Scattered Clouds34°C9 mph, SW31%10000m1006hPa25%
16-Jun-2024 12:00Light Rain30°C16 mph, S54%10000m1009hPa41%
16-Jun-2024 15:00Overcast Clouds30°C4 mph, S100%10000m1010hPa36%
16-Jun-2024 18:00Light Rain29°C2 mph, W100%10000m1011hPa42%
16-Jun-2024 21:00Overcast Clouds27°C2 mph, SW100%10000m1011hPa48%
17-Jun-2024 00:00Broken Clouds26°C2 mph, S81%10000m1011hPa47%
17-Jun-2024 03:00Scattered Clouds30°C0 mph, NW30%10000m1011hPa35%
17-Jun-2024 06:00Few Clouds34°C2 mph, NW14%10000m1008hPa23%
17-Jun-2024 09:00Scattered Clouds36°C7 mph, S34%10000m1006hPa21%
17-Jun-2024 12:00Light Rain29°C9 mph, NW46%10000m1010hPa47%
17-Jun-2024 15:00Light Rain27°C2 mph, SW100%10000m1013hPa54%
17-Jun-2024 18:00Overcast Clouds27°C2 mph, W100%10000m1013hPa56%
17-Jun-2024 21:00Light Rain26°C2 mph, W89%10000m1012hPa59%
18-Jun-2024 00:00Light Rain25°C2 mph, SW87%10000m1012hPa61%
18-Jun-2024 03:00Light Rain28°C2 mph, SE55%10000m1012hPa48%
18-Jun-2024 06:00Light Rain32°C0 mph, W37%10000m1008hPa33%
18-Jun-2024 09:00Scattered Clouds35°C2 mph, NW32%10000m1004hPa24%
18-Jun-2024 12:00Scattered Clouds32°C18 mph, NW35%10000m1004hPa34%
18-Jun-2024 15:00Light Rain24°C4 mph, E100%10000m1013hPa67%
18-Jun-2024 18:00Light Rain24°C2 mph, S97%10000m1012hPa65%
18-Jun-2024 21:00Light Rain24°C0 mph, W32%10000m1010hPa67%
19-Jun-2024 00:00Light Rain23°C2 mph, SW56%10000m1009hPa70%
19-Jun-2024 03:00Light Rain26°C2 mph, NW92%10000m1008hPa57%
19-Jun-2024 06:00Light Rain31°C2 mph, W52%10000m1004hPa36%
19-Jun-2024 09:00Few Clouds35°C4 mph, NW23%10000m1000hPa25%
19-Jun-2024 12:00Few Clouds36°C7 mph, SW20%10000m998hPa23%
19-Jun-2024 15:00Light Rain30°C7 mph, W90%10000m1002hPa38%
19-Jun-2024 18:00Light Rain29°C2 mph, NW95%10000m1005hPa42%
19-Jun-2024 21:00Light Rain26°C2 mph, SE34%10000m1007hPa52%
20-Jun-2024 00:00Light Rain25°C2 mph, SE56%10000m1008hPa59%
20-Jun-2024 03:00Light Rain27°C0 mph, S64%10000m1008hPa48%
20-Jun-2024 06:00Light Rain31°C2 mph, NW62%10000m1005hPa32%
20-Jun-2024 09:00Few Clouds35°C4 mph, NW21%10000m1001hPa24%
20-Jun-2024 12:00Scattered Clouds35°C9 mph, W40%10000m1000hPa23%
20-Jun-2024 15:00Light Rain29°C2 mph, E95%10000m1005hPa41%
20-Jun-2024 18:00Light Rain29°C2 mph, SE87%10000m1006hPa43%
20-Jun-2024 21:00Overcast Clouds28°C2 mph, S100%10000m1005hPa44%